Time;durP1;ratioP1;P1;durP2;ratioP2;P2;SDS_P1;SDS_P2;PMS_P1;PMS_P2;Temp;Humidity;BMP_temperature;BMP_pressure;BME280_temperature;BME280_humidity;BME280_pressure;Samples;Min_cycle;Max_cycle;Signal;HPM_P1;HPM_P2
2023/05/24 00:00:17;;;;;;;5.63;4.47;;;18.10;85.00;;;;;;5017094;28;20245;-66
2023/05/24 00:02:43;;;;;;;7.90;4.53;;;18.00;85.40;;;;;;5013170;28;20427;-66
2023/05/24 00:05:09;;;;;;;7.57;4.60;;;18.00;85.50;;;;;;5027845;28;20783;-66
2023/05/24 00:07:38;;;;;;;4.83;4.33;;;18.00;85.50;;;;;;5014012;28;20254;-66
2023/05/24 00:10:04;;;;;;;5.87;4.77;;;18.00;85.00;;;;;;5015419;28;20459;-66
2023/05/24 00:12:30;;;;;;;6.97;4.37;;;17.90;85.10;;;;;;5013490;28;20466;-66
2023/05/24 00:14:56;;;;;;;5.43;4.93;;;17.90;85.40;;;;;;5018622;28;20436;-66
2023/05/24 00:17:21;;;;;;;9.30;4.40;;;17.90;85.30;;;;;;5016741;28;20281;-66
2023/05/24 00:19:49;;;;;;;5.53;4.43;;;17.80;85.30;;;;;;5013938;28;20275;-66
2023/05/24 00:22:14;;;;;;;7.80;4.77;;;17.80;85.40;;;;;;5015798;28;20666;-66
2023/05/24 00:24:40;;;;;;;7.73;4.17;;;17.80;85.20;;;;;;5016198;28;20438;-65
2023/05/24 00:27:06;;;;;;;6.37;4.70;;;17.70;85.10;;;;;;5015068;28;20192;-66
2023/05/24 00:29:32;;;;;;;6.83;4.70;;;17.70;85.60;;;;;;5020085;28;20213;-66
2023/05/24 00:31:57;;;;;;;9.07;5.00;;;17.70;86.00;;;;;;5019647;28;20914;-66
2023/05/24 00:34:23;;;;;;;6.23;4.73;;;17.70;86.00;;;;;;5011440;28;20191;-66
2023/05/24 00:36:49;;;;;;;10.00;4.63;;;17.60;86.30;;;;;;5017974;28;20177;-66
2023/05/24 00:39:14;;;;;;;6.83;5.03;;;17.60;86.60;;;;;;5024110;28;20657;-66
2023/05/24 00:41:40;;;;;;;9.13;5.13;;;17.50;87.00;;;;;;5019013;28;20180;-66
2023/05/24 00:44:06;;;;;;;5.70;4.93;;;17.50;87.90;;;;;;5019674;28;20193;-66
2023/05/24 00:46:32;;;;;;;7.60;5.33;;;17.40;87.80;;;;;;5020437;28;20188;-66
2023/05/24 00:49:00;;;;;;;7.10;5.00;;;17.40;87.90;;;;;;5009008;28;20226;-66
2023/05/24 00:51:29;;;;;;;8.40;5.87;;;17.40;88.00;;;;;;5004382;28;20432;-66
2023/05/24 00:53:54;;;;;;;8.60;5.77;;;17.30;88.20;;;;;;5014206;28;20490;-66
2023/05/24 00:56:21;;;;;;;8.80;4.90;;;17.30;88.50;;;;;;5017930;28;20877;-67
2023/05/24 00:58:49;;;;;;;7.83;5.10;;;17.30;88.60;;;;;;5022867;28;20240;-67
2023/05/24 01:01:14;;;;;;;8.73;5.23;;;17.20;88.60;;;;;;5030717;28;20452;-67
2023/05/24 01:03:40;;;;;;;10.40;5.30;;;17.20;88.90;;;;;;5012637;28;20448;-67
2023/05/24 01:06:07;;;;;;;9.17;5.27;;;17.20;89.20;;;;;;5018543;28;20204;-67
2023/05/24 01:08:38;;;;;;;9.50;5.20;;;17.10;89.30;;;;;;5005743;28;20209;-67
2023/05/24 01:11:27;;;;;;;11.20;5.50;;;17.00;89.50;;;;;;5008182;28;20447;-67
2023/05/24 01:14:08;;;;;;;5.67;4.93;;;17.00;89.70;;;;;;5003038;28;20921;-67
2023/05/24 01:16:50;;;;;;;7.57;4.80;;;16.90;89.70;;;;;;5012897;28;20436;-67
2023/05/24 01:19:47;;;;;;;8.27;5.70;;;16.90;89.90;;;;;;5015882;28;20898;-65
2023/05/24 01:22:16;;;;;;;11.43;5.17;;;16.90;90.10;;;;;;5016606;28;20909;-67
2023/05/24 01:25:02;;;;;;;13.97;5.13;;;16.90;90.10;;;;;;5015320;28;20440;-66
2023/05/24 01:27:29;;;;;;;9.60;4.80;;;16.80;90.10;;;;;;5017228;28;20443;-66
2023/05/24 01:29:55;;;;;;;11.47;5.50;;;16.80;90.20;;;;;;5021055;28;20551;-68
2023/05/24 01:32:21;;;;;;;11.00;5.33;;;16.80;90.30;;;;;;5024083;28;20473;-66
2023/05/24 01:34:47;;;;;;;8.00;5.90;;;16.80;90.30;;;;;;5026145;28;20452;-67
2023/05/24 01:37:13;;;;;;;9.93;4.83;;;16.80;90.40;;;;;;5019609;28;20799;-67
2023/05/24 01:39:39;;;;;;;8.00;5.47;;;16.80;90.50;;;;;;5022490;28;20257;-67
2023/05/24 01:42:07;;;;;;;7.43;5.23;;;16.80;90.50;;;;;;5023662;28;20211;-66
2023/05/24 01:44:54;;;;;;;9.03;5.13;;;16.80;90.60;;;;;;5033645;28;20556;-67
2023/05/24 01:47:53;;;;;;;10.07;5.27;;;16.80;91.00;;;;;;5023406;28;20440;-65
2023/05/24 01:50:24;;;;;;;8.20;4.80;;;16.70;90.70;;;;;;5020373;28;20440;-64
2023/05/24 01:52:52;;;;;;;7.93;5.80;;;16.70;90.80;;;;;;5030433;28;20527;-64
2023/05/24 01:55:18;;;;;;;7.47;5.50;;;16.70;91.00;;;;;;5021355;28;20737;-65
2023/05/24 01:57:47;;;;;;;10.30;4.80;;;16.60;91.00;;;;;;5021192;28;20478;-67
2023/05/24 02:00:18;;;;;;;8.17;5.20;;;16.60;91.10;;;;;;5022937;28;20943;-67
2023/05/24 02:02:44;;;;;;;9.10;5.70;;;16.60;91.20;;;;;;5027237;28;20446;-65
2023/05/24 02:05:10;;;;;;;9.53;5.80;;;16.60;91.30;;;;;;5023915;28;20818;-64
2023/05/24 02:07:36;;;;;;;7.00;5.87;;;16.60;91.30;;;;;;5024666;28;20422;-65
2023/05/24 02:10:02;;;;;;;9.97;5.30;;;16.60;91.40;;;;;;5026124;28;20452;-64
2023/05/24 02:12:28;;;;;;;11.13;7.10;;;16.60;91.50;;;;;;5022519;28;20235;-65
2023/05/24 02:14:53;;;;;;;7.73;4.90;;;16.60;91.50;;;;;;5017068;28;20472;-65
2023/05/24 02:17:19;;;;;;;7.73;4.87;;;16.50;91.50;;;;;;5029088;28;20188;-66
2023/05/24 02:19:44;;;;;;;8.67;5.47;;;16.50;91.60;;;;;;5021688;28;20216;-66
2023/05/24 02:22:11;;;;;;;8.30;4.67;;;16.50;91.70;;;;;;5021613;28;20214;-66
2023/05/24 02:24:39;;;;;;;7.57;5.10;;;16.50;91.70;;;;;;5027406;28;20215;-66
2023/05/24 02:27:04;;;;;;;7.97;5.27;;;16.50;91.70;;;;;;5024770;28;20446;-66
2023/05/24 02:29:30;;;;;;;9.83;5.30;;;16.50;91.70;;;;;;5027630;28;20484;-66
2023/05/24 02:31:56;;;;;;;9.03;5.37;;;16.50;91.70;;;;;;5023877;28;20181;-66
2023/05/24 02:34:22;;;;;;;10.57;5.63;;;16.50;92.20;;;;;;5027006;28;20278;-66
2023/05/24 02:36:48;;;;;;;12.87;5.60;;;16.40;91.70;;;;;;5019107;28;20251;-66
2023/05/24 02:39:14;;;;;;;10.10;5.90;;;16.40;91.70;;;;;;5018691;28;20483;-66
2023/05/24 02:41:40;;;;;;;7.70;5.13;;;16.30;91.60;;;;;;5023098;28;20867;-66
2023/05/24 02:44:06;;;;;;;12.90;5.80;;;16.30;91.60;;;;;;5022858;28;20257;-66
2023/05/24 02:46:31;;;;;;;7.97;5.53;;;16.30;91.60;;;;;;5015177;28;20189;-66
2023/05/24 02:48:57;;;;;;;13.77;5.40;;;16.30;91.40;;;;;;5024718;28;20553;-66
2023/05/24 02:51:23;;;;;;;10.53;5.43;;;16.30;91.50;;;;;;5022986;28;20189;-66
2023/05/24 02:53:48;;;;;;;8.60;5.50;;;16.30;91.40;;;;;;5019124;28;20208;-66
2023/05/24 02:56:16;;;;;;;10.50;6.03;;;16.20;91.40;;;;;;5028780;28;20721;-66
2023/05/24 02:58:43;;;;;;;9.60;4.90;;;16.10;91.30;;;;;;5022436;28;20203;-66
2023/05/24 03:01:11;;;;;;;8.70;5.83;;;16.10;91.40;;;;;;5018325;28;20432;-66
2023/05/24 03:03:37;;;;;;;12.20;6.30;;;16.10;91.30;;;;;;5028112;28;20521;-66
2023/05/24 03:06:02;;;;;;;9.73;5.57;;;16.10;91.30;;;;;;5018873;28;20451;-66
2023/05/24 03:08:28;;;;;;;10.73;5.43;;;16.10;91.30;;;;;;5017479;28;20466;-66
2023/05/24 03:10:53;;;;;;;11.97;4.87;;;16.10;91.20;;;;;;5015851;28;20883;-66
2023/05/24 03:13:19;;;;;;;8.57;4.80;;;16.10;91.10;;;;;;5023800;28;20633;-66
2023/05/24 03:15:45;;;;;;;7.93;4.77;;;16.10;91.10;;;;;;5009270;28;20188;-66
2023/05/24 03:18:11;;;;;;;9.67;5.30;;;16.00;90.90;;;;;;5020276;28;20283;-66
2023/05/24 03:20:36;;;;;;;9.60;4.93;;;16.10;91.00;;;;;;5012705;28;20941;-66
2023/05/24 03:23:02;;;;;;;6.73;5.00;;;16.00;90.90;;;;;;5019126;28;20197;-66
2023/05/24 03:25:27;;;;;;;8.20;5.30;;;16.00;91.00;;;;;;5021642;28;20192;-66
2023/05/24 03:27:53;;;;;;;10.27;5.70;;;16.00;91.00;;;;;;5028999;28;20199;-66
2023/05/24 03:30:18;;;;;;;10.10;5.07;;;15.90;90.90;;;;;;5021419;28;20207;-66
2023/05/24 03:32:44;;;;;;;12.03;5.00;;;16.00;91.00;;;;;;5021808;28;20212;-66
2023/05/24 03:35:10;;;;;;;9.07;5.10;;;15.90;91.00;;;;;;5018724;28;20592;-66
2023/05/24 03:37:36;;;;;;;9.27;4.80;;;15.90;91.00;;;;;;5008184;28;20197;-66
2023/05/24 03:40:03;;;;;;;10.07;5.20;;;15.90;90.90;;;;;;5013421;28;20460;-66
2023/05/24 03:42:29;;;;;;;10.43;5.57;;;15.90;91.00;;;;;;5014773;28;20440;-66
2023/05/24 03:44:54;;;;;;;11.90;6.90;;;15.90;91.00;;;;;;5009885;28;20439;-66
2023/05/24 03:47:20;;;;;;;9.23;5.20;;;15.90;90.90;;;;;;5013882;28;20184;-66
2023/05/24 03:49:46;;;;;;;10.30;5.07;;;15.90;91.00;;;;;;5007892;28;20630;-66
2023/05/24 03:52:12;;;;;;;9.63;4.93;;;15.80;91.00;;;;;;5010276;28;20212;-66
2023/05/24 03:54:37;;;;;;;10.73;5.33;;;15.80;91.10;;;;;;5008621;28;20455;-66
2023/05/24 03:57:03;;;;;;;8.07;5.80;;;15.80;91.10;;;;;;5012938;28;20195;-66
2023/05/24 03:59:29;;;;;;;10.20;5.27;;;15.80;91.00;;;;;;5012951;28;20212;-66
2023/05/24 04:01:55;;;;;;;9.20;5.00;;;15.80;90.90;;;;;;5030670;28;20183;-66
2023/05/24 04:04:21;;;;;;;6.63;5.10;;;15.80;91.00;;;;;;5026684;28;20416;-66
2023/05/24 04:06:46;;;;;;;7.70;5.57;;;15.80;91.00;;;;;;5015635;28;20497;-66
2023/05/24 04:09:12;;;;;;;16.43;6.13;;;15.70;90.80;;;;;;5022868;28;20241;-66
2023/05/24 04:11:38;;;;;;;9.20;5.00;;;15.70;90.90;;;;;;5013255;28;20208;-66
2023/05/24 04:14:03;;;;;;;12.50;6.50;;;15.80;90.90;;;;;;5019767;28;20297;-66
2023/05/24 04:16:32;;;;;;;8.53;4.77;;;15.70;90.80;;;;;;5014734;28;20327;-66
2023/05/24 04:19:00;;;;;;;10.60;4.80;;;15.70;90.60;;;;;;5021232;28;20254;-66
2023/05/24 04:21:26;;;;;;;10.50;5.30;;;15.70;90.70;;;;;;5017400;28;20443;-66
2023/05/24 04:23:52;;;;;;;10.00;5.20;;;15.70;90.80;;;;;;5021381;28;20443;-66
2023/05/24 04:26:17;;;;;;;12.23;5.03;;;15.70;90.70;;;;;;5025412;28;20827;-66
2023/05/24 04:28:44;;;;;;;13.83;5.00;;;15.70;90.70;;;;;;5019873;28;20267;-66
2023/05/24 04:31:10;;;;;;;7.90;5.10;;;15.70;90.70;;;;;;5023034;28;20602;-66
2023/05/24 04:33:38;;;;;;;10.07;4.60;;;15.70;90.80;;;;;;5020890;28;20459;-66
2023/05/24 04:36:03;;;;;;;11.50;5.40;;;15.70;90.80;;;;;;5013493;28;20574;-66
2023/05/24 04:38:31;;;;;;;8.37;5.03;;;15.70;90.80;;;;;;5012943;28;20571;-66
2023/05/24 04:40:59;;;;;;;9.63;5.50;;;15.70;90.80;;;;;;5015809;28;20177;-66
2023/05/24 04:43:25;;;;;;;9.07;4.63;;;15.70;90.70;;;;;;5012639;28;20434;-66
2023/05/24 04:45:53;;;;;;;9.23;5.00;;;15.70;90.80;;;;;;5016519;28;20426;-66
2023/05/24 04:48:20;;;;;;;6.40;4.87;;;15.70;90.80;;;;;;5019576;28;20709;-66
2023/05/24 04:50:46;;;;;;;6.30;4.60;;;15.70;90.80;;;;;;5014755;28;20430;-65
2023/05/24 04:53:13;;;;;;;10.60;5.50;;;15.70;90.70;;;;;;5011381;28;20467;-66
2023/05/24 04:55:39;;;;;;;13.67;4.80;;;15.60;90.70;;;;;;5018664;28;20446;-65
2023/05/24 04:58:04;;;;;;;9.00;4.63;;;15.60;90.70;;;;;;5020695;28;20959;-65
2023/05/24 05:00:30;;;;;;;15.27;5.60;;;15.60;90.70;;;;;;5021056;28;20211;-65
2023/05/24 05:02:55;;;;;;;11.80;6.60;;;15.60;90.70;;;;;;5025149;28;20232;-66
2023/05/24 05:05:21;;;;;;;8.30;4.70;;;15.60;90.90;;;;;;5021745;28;20181;-66
2023/05/24 05:07:47;;;;;;;10.30;5.07;;;15.60;90.90;;;;;;5021024;28;20189;-65
2023/05/24 05:10:12;;;;;;;10.13;4.40;;;15.60;90.90;;;;;;5021953;28;20192;-65
2023/05/24 05:12:38;;;;;;;12.13;5.13;;;15.60;90.90;;;;;;5018563;28;20207;-66
2023/05/24 05:15:04;;;;;;;7.80;4.30;;;15.60;91.10;;;;;;5015818;28;20181;-66
2023/05/24 05:17:29;;;;;;;9.40;4.33;;;15.60;91.00;;;;;;5023042;28;20193;-65
2023/05/24 05:19:55;;;;;;;9.50;4.50;;;15.60;90.90;;;;;;5018077;28;20522;-65
2023/05/24 05:22:21;;;;;;;7.53;4.60;;;15.60;91.00;;;;;;5017992;28;20338;-66
2023/05/24 05:24:46;;;;;;;8.20;4.63;;;15.60;91.10;;;;;;5020043;28;20180;-65
2023/05/24 05:27:12;;;;;;;10.50;5.83;;;15.60;91.10;;;;;;5021958;28;20183;-66
2023/05/24 05:29:37;;;;;;;15.83;4.90;;;15.60;91.10;;;;;;5019138;28;20255;-67
2023/05/24 05:32:03;;;;;;;12.07;5.20;;;15.60;91.10;;;;;;5019717;28;20239;-67
2023/05/24 05:34:28;;;;;;;8.53;4.93;;;15.60;91.00;;;;;;5029296;28;20181;-67
2023/05/24 05:36:54;;;;;;;9.30;5.43;;;15.70;91.10;;;;;;5020258;28;20655;-67
2023/05/24 05:39:20;;;;;;;8.20;4.77;;;15.70;91.00;;;;;;5020759;28;20591;-67
2023/05/24 05:41:46;;;;;;;9.40;5.20;;;15.70;91.00;;;;;;5025517;28;20654;-68
2023/05/24 05:44:12;;;;;;;7.30;4.77;;;15.70;91.10;;;;;;5025119;28;20185;-68
2023/05/24 05:46:38;;;;;;;8.53;4.83;;;15.70;91.10;;;;;;5018043;28;20493;-67
2023/05/24 05:49:05;;;;;;;12.53;5.27;;;15.80;91.50;;;;;;5024742;28;20817;-67
2023/05/24 05:51:30;;;;;;;10.30;5.00;;;15.70;91.40;;;;;;5017422;28;20464;-67
2023/05/24 05:53:56;;;;;;;10.63;4.70;;;15.70;91.10;;;;;;5026050;28;20687;-68
2023/05/24 05:56:22;;;;;;;9.23;5.20;;;15.80;91.30;;;;;;5018595;28;20183;-68
2023/05/24 05:58:47;;;;;;;9.53;6.00;;;15.80;91.50;;;;;;5021659;28;20280;-67
2023/05/24 06:01:15;;;;;;;9.20;5.47;;;15.90;91.20;;;;;;5025666;28;20689;-66
2023/05/24 06:03:40;;;;;;;11.00;4.70;;;15.80;91.10;;;;;;5018663;28;20611;-69
2023/05/24 06:06:06;;;;;;;9.17;5.30;;;15.90;91.20;;;;;;5017032;28;20458;-67
2023/05/24 06:08:33;;;;;;;9.67;5.30;;;16.00;91.40;;;;;;5018031;28;20232;-67
2023/05/24 06:11:00;;;;;;;14.97;5.70;;;16.00;91.20;;;;;;5014281;28;20403;-67
2023/05/24 06:13:27;;;;;;;17.17;5.63;;;15.90;91.20;;;;;;5019707;28;20498;-65
2023/05/24 06:15:53;;;;;;;12.77;5.67;;;15.90;91.40;;;;;;5013215;28;20815;-65
2023/05/24 06:18:19;;;;;;;16.77;5.03;;;16.00;91.30;;;;;;5020829;28;20462;-66
2023/05/24 06:20:45;;;;;;;11.27;5.07;;;16.00;91.20;;;;;;5022025;28;20497;-66
2023/05/24 06:23:11;;;;;;;9.90;6.07;;;16.00;91.50;;;;;;5015869;28;20431;-66
2023/05/24 06:25:37;;;;;;;15.37;4.90;;;16.00;91.50;;;;;;5012025;28;20482;-67
2023/05/24 06:28:03;;;;;;;11.03;7.03;;;16.00;91.50;;;;;;5018030;28;20205;-67
2023/05/24 06:30:29;;;;;;;14.07;6.60;;;16.10;91.40;;;;;;5020680;28;20419;-66
2023/05/24 06:32:55;;;;;;;13.20;5.53;;;16.10;91.20;;;;;;5020238;28;20462;-67
2023/05/24 06:35:21;;;;;;;6.73;4.73;;;16.20;90.80;;;;;;5017782;28;20256;-66
2023/05/24 06:37:47;;;;;;;10.60;5.13;;;16.20;90.60;;;;;;5015176;28;20765;-66
2023/05/24 06:40:12;;;;;;;12.50;5.67;;;16.10;90.50;;;;;;5016387;28;20538;-66
2023/05/24 06:42:38;;;;;;;10.83;6.20;;;16.20;90.50;;;;;;5015145;28;20256;-67
2023/05/24 06:45:04;;;;;;;14.27;7.47;;;16.30;90.40;;;;;;5016790;28;20659;-66
2023/05/24 06:47:30;;;;;;;10.47;5.37;;;16.30;90.60;;;;;;5015923;28;20439;-66
2023/05/24 06:49:56;;;;;;;14.23;9.67;;;16.40;90.50;;;;;;5017134;28;20447;-66
2023/05/24 06:52:21;;;;;;;10.10;5.00;;;16.40;90.10;;;;;;5013830;28;20224;-66
2023/05/24 06:54:49;;;;;;;8.23;4.50;;;16.30;90.00;;;;;;5012100;28;20319;-66
2023/05/24 06:57:14;;;;;;;17.40;5.40;;;16.40;90.10;;;;;;5021858;28;20752;-67
2023/05/24 06:59:40;;;;;;;11.27;6.27;;;16.50;89.90;;;;;;5014372;28;20455;-66
2023/05/24 07:02:05;;;;;;;6.67;5.10;;;16.50;89.70;;;;;;5024015;28;20263;-66
2023/05/24 07:04:31;;;;;;;10.83;5.10;;;16.50;89.80;;;;;;5025054;28;20185;-67
2023/05/24 07:06:57;;;;;;;10.30;5.30;;;16.60;89.60;;;;;;5023376;28;20179;-67
2023/05/24 07:09:22;;;;;;;9.07;4.53;;;16.70;89.30;;;;;;5018746;28;20196;-67
2023/05/24 07:11:48;;;;;;;13.57;6.97;;;16.70;89.00;;;;;;5020481;28;20242;-66
2023/05/24 07:14:14;;;;;;;13.60;5.27;;;16.70;89.50;;;;;;5021482;28;20525;-66
2023/05/24 07:16:39;;;;;;;8.47;5.50;;;16.70;89.60;;;;;;5022495;28;20215;-67
2023/05/24 07:19:06;;;;;;;10.97;6.13;;;16.70;89.30;;;;;;5027602;28;20235;-67
2023/05/24 07:21:31;;;;;;;13.13;5.87;;;16.80;89.50;;;;;;5014482;28;20177;-66
2023/05/24 07:23:57;;;;;;;8.93;4.90;;;16.80;88.30;;;;;;5018890;28;20439;-66
2023/05/24 07:26:23;;;;;;;6.63;5.10;;;16.80;87.80;;;;;;5023557;28;20579;-67
2023/05/24 07:28:48;;;;;;;14.30;5.30;;;16.80;88.20;;;;;;5025216;28;20314;-67
2023/05/24 07:31:15;;;;;;;16.27;5.57;;;16.80;87.40;;;;;;5018951;28;20173;-67
2023/05/24 07:33:40;;;;;;;12.03;5.20;;;16.80;87.60;;;;;;5017966;28;20216;-67
2023/05/24 07:36:07;;;;;;;9.20;4.63;;;16.90;87.40;;;;;;5013722;28;20435;-67
2023/05/24 07:38:33;;;;;;;8.87;4.33;;;16.90;87.00;;;;;;5010275;28;20216;-67
2023/05/24 07:41:02;;;;;;;10.33;5.80;;;16.90;86.40;;;;;;5018144;28;20431;-67
2023/05/24 07:43:28;;;;;;;10.30;4.70;;;16.90;86.00;;;;;;5014930;28;20538;-67
2023/05/24 07:45:54;;;;;;;18.43;6.13;;;16.80;86.50;;;;;;5005613;28;20442;-67
2023/05/24 07:48:20;;;;;;;9.30;4.60;;;16.80;86.60;;;;;;5010718;28;20455;-66
2023/05/24 07:50:49;;;;;;;9.40;5.10;;;16.80;87.00;;;;;;5013288;28;20263;-67
2023/05/24 07:53:15;;;;;;;7.90;4.20;;;16.90;86.90;;;;;;5015688;28;21518;-67
2023/05/24 07:55:41;;;;;;;8.70;4.57;;;16.90;86.80;;;;;;5011442;28;20494;-67
2023/05/24 07:58:06;;;;;;;13.03;6.03;;;17.00;85.50;;;;;;5014179;28;20209;-65
2023/05/24 08:00:32;;;;;;;12.10;6.10;;;17.00;85.30;;;;;;5013554;28;20990;-64
2023/05/24 08:02:58;;;;;;;11.13;6.33;;;17.00;85.80;;;;;;5017899;28;21375;-64
2023/05/24 08:05:24;;;;;;;14.07;5.47;;;17.00;85.40;;;;;;5017885;28;20188;-65
2023/05/24 08:07:50;;;;;;;12.00;5.20;;;17.00;84.40;;;;;;5015794;28;20443;-64
2023/05/24 08:10:16;;;;;;;19.60;5.10;;;17.00;83.80;;;;;;5008938;28;21157;-65
2023/05/24 08:12:42;;;;;;;11.27;5.33;;;17.00;84.10;;;;;;5012734;28;20215;-64
2023/05/24 08:15:08;;;;;;;8.43;4.50;;;17.10;82.50;;;;;;5015224;28;20185;-64
2023/05/24 08:17:33;;;;;;;9.73;4.33;;;17.30;82.40;;;;;;5012698;28;20922;-65
2023/05/24 08:19:59;;;;;;;9.73;4.73;;;17.40;80.60;;;;;;5008758;28;20471;-65
2023/05/24 08:22:25;;;;;;;9.20;4.60;;;17.50;80.80;;;;;;5014618;28;20503;-64
2023/05/24 08:24:51;;;;;;;12.67;4.60;;;17.50;81.10;;;;;;5015065;28;20427;-67
2023/05/24 08:27:16;;;;;;;10.30;4.57;;;17.60;81.30;;;;;;5017483;28;20603;-67
2023/05/24 08:29:42;;;;;;;11.53;4.37;;;17.60;80.30;;;;;;5013794;28;20473;-67
2023/05/24 08:32:08;;;;;;;8.70;4.10;;;17.50;79.60;;;;;;5019110;28;20184;-67
2023/05/24 08:34:37;;;;;;;14.00;4.67;;;17.50;78.50;;;;;;5015298;28;20553;-64
2023/05/24 08:37:04;;;;;;;7.73;3.77;;;17.30;77.30;;;;;;5014901;28;20180;-65
2023/05/24 08:39:29;;;;;;;14.50;4.70;;;17.20;77.30;;;;;;5011194;28;20447;-67
2023/05/24 08:41:56;;;;;;;7.47;5.43;;;17.20;77.70;;;;;;5014022;28;20463;-67
2023/05/24 08:44:23;;;;;;;12.73;5.23;;;17.20;77.90;;;;;;5017012;28;20650;-66
2023/05/24 08:46:50;;;;;;;12.30;5.10;;;17.20;78.50;;;;;;5012383;28;20430;-66
2023/05/24 08:49:15;;;;;;;10.87;4.97;;;17.20;77.70;;;;;;5017077;28;20461;-66
2023/05/24 08:51:43;;;;;;;12.53;5.97;;;17.30;76.60;;;;;;5002167;28;20797;-67
2023/05/24 08:54:10;;;;;;;15.17;5.70;;;17.50;76.80;;;;;;5012134;28;20205;-67
2023/05/24 08:56:38;;;;;;;8.90;4.40;;;17.80;76.00;;;;;;5013121;28;20798;-66
2023/05/24 08:59:05;;;;;;;12.90;4.10;;;17.90;75.30;;;;;;5006180;28;20996;-67
2023/05/24 09:01:32;;;;;;;13.10;4.30;;;18.20;74.70;;;;;;5013105;28;20440;-66
2023/05/24 09:03:59;;;;;;;15.23;5.23;;;18.30;72.80;;;;;;5006034;28;20467;-66
2023/05/24 09:06:25;;;;;;;13.03;4.27;;;18.40;72.90;;;;;;5012068;28;20428;-66
2023/05/24 09:08:52;;;;;;;10.63;5.60;;;18.50;72.00;;;;;;5015123;28;20466;-66
2023/05/24 09:11:19;;;;;;;9.50;4.50;;;18.60;72.00;;;;;;5012820;28;20431;-66
2023/05/24 09:13:46;;;;;;;9.50;4.90;;;18.70;70.70;;;;;;5016121;28;20558;-66
2023/05/24 09:16:13;;;;;;;8.27;3.90;;;18.70;70.90;;;;;;5018978;28;20440;-67
2023/05/24 09:18:41;;;;;;;8.20;4.10;;;18.70;68.80;;;;;;5022545;28;20538;-67
2023/05/24 09:21:08;;;;;;;8.70;3.83;;;18.70;68.60;;;;;;5015727;28;20799;-66
2023/05/24 09:23:34;;;;;;;7.27;4.40;;;18.70;68.40;;;;;;5007921;28;20846;-66
2023/05/24 09:26:07;;;;;;;10.87;4.13;;;18.70;67.80;;;;;;5017968;28;20439;-66
2023/05/24 09:28:32;;;;;;;7.70;3.93;;;18.70;68.20;;;;;;5023390;28;20440;-66
2023/05/24 09:31:00;;;;;;;10.40;3.93;;;18.60;67.80;;;;;;5010087;28;20439;-66
2023/05/24 09:33:33;;;;;;;10.63;4.10;;;18.60;66.90;;;;;;5022169;28;20203;-66
2023/05/24 09:36:00;;;;;;;10.43;4.80;;;18.50;66.40;;;;;;5012186;28;20440;-66
2023/05/24 09:38:26;;;;;;;7.80;3.23;;;18.40;65.20;;;;;;5015252;28;21203;-66
2023/05/24 09:41:05;;;;;;;8.60;4.33;;;18.30;65.70;;;;;;5012995;28;20461;-67
2023/05/24 09:43:36;;;;;;;11.27;3.87;;;18.30;65.90;;;;;;5017828;28;20941;-66
2023/05/24 09:46:03;;;;;;;8.30;4.10;;;18.20;65.90;;;;;;5013791;28;20450;-66
2023/05/24 09:48:29;;;;;;;7.97;4.20;;;18.10;63.20;;;;;;5017346;28;20451;-66
2023/05/24 09:51:12;;;;;;;7.60;4.03;;;18.00;63.80;;;;;;5016212;28;20440;-66
2023/05/24 09:53:37;;;;;;;13.23;4.43;;;18.00;63.50;;;;;;5022982;28;20530;-66
2023/05/24 09:56:04;;;;;;;7.90;3.77;;;18.00;64.20;;;;;;5005272;28;20963;-65
2023/05/24 09:58:32;;;;;;;8.87;4.23;;;17.90;63.90;;;;;;5012585;28;20295;-65
2023/05/24 10:01:11;;;;;;;11.70;4.07;;;17.90;64.90;;;;;;5016665;28;20807;-66
2023/05/24 10:03:37;;;;;;;9.43;3.80;;;17.80;66.10;;;;;;5020656;28;20807;-66
2023/05/24 10:06:10;;;;;;;12.27;4.30;;;17.90;66.70;;;;;;5020977;28;20577;-66
2023/05/24 10:08:36;;;;;;;7.43;4.00;;;18.00;65.50;;;;;;5009711;28;20934;-66
2023/05/24 10:11:05;;;;;;;8.00;4.60;;;18.00;65.40;;;;;;5016633;28;20526;-65
2023/05/24 10:13:35;;;;;;;6.67;3.90;;;18.10;65.40;;;;;;5013840;28;21136;-65
2023/05/24 10:16:02;;;;;;;10.20;4.00;;;18.10;65.20;;;;;;5009782;28;20485;-66
2023/05/24 10:18:28;;;;;;;6.40;3.73;;;18.20;65.20;;;;;;5010760;28;20463;-66
2023/05/24 10:20:56;;;;;;;9.60;4.70;;;18.30;65.50;;;;;;5009129;28;20551;-66
2023/05/24 10:23:25;;;;;;;8.70;4.40;;;18.30;65.20;;;;;;5014590;28;20530;-66
2023/05/24 10:26:02;;;;;;;9.13;3.53;;;18.30;63.90;;;;;;5015277;28;20466;-66
2023/05/24 10:28:29;;;;;;;7.63;3.60;;;18.10;63.50;;;;;;5013036;28;20446;-66
2023/05/24 10:31:09;;;;;;;10.33;4.03;;;17.90;63.40;;;;;;5011865;28;20489;-66
2023/05/24 10:33:36;;;;;;;7.23;3.80;;;18.10;63.60;;;;;;5008339;28;20585;-66
2023/05/24 10:36:05;;;;;;;7.80;4.80;;;18.20;64.70;;;;;;5014856;28;20536;-66
2023/05/24 10:38:31;;;;;;;10.17;4.30;;;18.20;63.10;;;;;;5015712;28;20945;-66
2023/05/24 10:40:57;;;;;;;6.03;3.67;;;18.30;63.10;;;;;;5040572;28;20451;-66
2023/05/24 10:43:23;;;;;;;7.33;3.77;;;18.30;60.80;;;;;;5028174;28;20184;-66
2023/05/24 10:45:49;;;;;;;9.90;4.37;;;18.30;60.30;;;;;;5017468;28;20516;-66
2023/05/24 10:48:15;;;;;;;11.57;4.50;;;18.40;59.70;;;;;;5018324;28;20204;-66
2023/05/24 10:50:42;;;;;;;4.77;4.13;;;18.40;59.70;;;;;;5015055;28;20435;-66
2023/05/24 10:53:18;;;;;;;10.67;6.97;;;18.50;60.40;;;;;;5016358;28;20204;-66
2023/05/24 10:55:59;;;;;;;9.80;3.90;;;18.60;61.60;;;;;;5009864;28;20842;-66
2023/05/24 10:58:57;;;;;;;7.17;3.90;;;18.70;62.20;;;;;;5012896;28;21071;-66
2023/05/24 11:01:30;;;;;;;7.97;4.40;;;18.80;61.60;;;;;;5016979;28;20435;-66
2023/05/24 11:04:14;;;;;;;10.37;3.70;;;18.90;61.00;;;;;;5019574;28;20479;-66
2023/05/24 11:06:54;;;;;;;8.93;3.70;;;18.90;59.50;;;;;;5021089;28;20589;-66
2023/05/24 11:09:21;;;;;;;7.23;3.90;;;19.00;58.70;;;;;;5014157;28;20467;-66
2023/05/24 11:11:48;;;;;;;9.90;4.20;;;19.00;59.10;;;;;;5014728;28;20443;-66
2023/05/24 11:14:18;;;;;;;9.40;5.63;;;19.10;59.30;;;;;;5018922;28;20509;-65
2023/05/24 11:16:45;;;;;;;9.20;5.40;;;19.20;59.90;;;;;;5021301;28;20427;-65
2023/05/24 11:19:22;;;;;;;11.43;5.13;;;19.40;61.40;;;;;;5011491;28;20490;-67
2023/05/24 11:21:49;;;;;;;11.87;5.03;;;19.50;60.90;;;;;;5014846;28;20570;-67
2023/05/24 11:24:20;;;;;;;8.63;5.37;;;19.70;60.10;;;;;;5019284;28;20530;-67
2023/05/24 11:26:46;;;;;;;7.90;4.83;;;19.80;60.20;;;;;;5015487;28;20909;-69
2023/05/24 11:29:16;;;;;;;9.50;4.17;;;19.80;60.00;;;;;;5013415;28;20485;-67
2023/05/24 11:32:00;;;;;;;10.57;3.97;;;19.90;60.70;;;;;;5013868;28;20184;-66
2023/05/24 11:34:26;;;;;;;10.43;4.97;;;20.00;59.90;;;;;;5015132;28;20546;-66
2023/05/24 11:36:52;;;;;;;9.60;4.73;;;20.20;59.40;;;;;;5008870;28;21059;-64
2023/05/24 11:39:17;;;;;;;10.63;5.10;;;20.30;60.00;;;;;;5007377;28;20457;-64
2023/05/24 11:41:43;;;;;;;10.87;4.33;;;20.40;59.10;;;;;;5015282;28;20515;-65
2023/05/24 11:44:10;;;;;;;6.40;4.00;;;20.60;59.00;;;;;;5016330;28;20214;-64
2023/05/24 11:46:38;;;;;;;10.73;3.73;;;20.80;58.80;;;;;;5020896;28;20435;-67
2023/05/24 11:49:04;;;;;;;11.70;4.33;;;21.20;58.80;;;;;;5018459;28;20475;-65
2023/05/24 11:51:32;;;;;;;9.50;4.40;;;21.50;57.90;;;;;;5016287;28;20444;-64
2023/05/24 11:53:58;;;;;;;8.90;3.60;;;21.80;57.70;;;;;;5020765;28;20884;-64
2023/05/24 11:56:29;;;;;;;11.10;4.00;;;22.20;57.80;;;;;;5015728;28;20424;-67
2023/05/24 11:59:22;;;;;;;8.90;4.40;;;22.80;57.20;;;;;;5019266;28;20501;-63
2023/05/24 12:01:48;;;;;;;11.97;4.27;;;23.40;55.30;;;;;;5016679;28;20423;-65
2023/05/24 12:04:14;;;;;;;6.80;4.03;;;25.00;55.20;;;;;;5012188;28;20929;-65
2023/05/24 12:06:43;;;;;;;15.90;5.30;;;25.80;52.60;;;;;;5010335;28;20443;-64
2023/05/24 12:09:12;;;;;;;10.00;4.23;;;27.30;49.70;;;;;;5009980;28;20213;-65
2023/05/24 12:11:43;;;;;;;7.20;4.50;;;27.40;48.40;;;;;;5017672;28;20442;-64
2023/05/24 12:14:13;;;;;;;8.23;4.80;;;29.00;47.10;;;;;;5015305;28;20595;-65
2023/05/24 12:16:41;;;;;;;11.97;4.83;;;30.00;46.50;;;;;;5009953;28;20676;-65
2023/05/24 12:19:07;;;;;;;8.00;4.17;;;30.90;44.60;;;;;;5012947;28;20455;-64
2023/05/24 12:21:34;;;;;;;11.03;5.60;;;31.80;43.00;;;;;;5017633;28;20470;-66
2023/05/24 12:24:14;;;;;;;7.60;4.93;;;32.60;41.30;;;;;;5009364;28;20741;-66
2023/05/24 12:26:41;;;;;;;5.63;4.00;;;33.30;40.20;;;;;;5012107;28;20436;-66
2023/05/24 12:29:08;;;;;;;8.00;4.30;;;33.70;38.60;;;;;;5011778;28;21273;-67
2023/05/24 12:31:34;;;;;;;10.80;5.10;;;34.10;36.70;;;;;;5022000;28;20472;-65
2023/05/24 12:33:59;;;;;;;6.97;4.70;;;33.50;36.90;;;;;;5016087;28;20471;-64
2023/05/24 12:36:28;;;;;;;8.43;4.57;;;33.70;36.10;;;;;;5007771;28;20208;-64
2023/05/24 12:38:57;;;;;;;9.13;4.60;;;33.40;35.80;;;;;;5008579;28;20599;-64
2023/05/24 12:41:22;;;;;;;7.00;4.33;;;34.00;35.70;;;;;;5013632;28;20430;-64
2023/05/24 12:43:50;;;;;;;7.83;4.90;;;34.40;35.10;;;;;;5025248;28;20933;-65